Startline

Run for Women

Halifax, NS - May 4, 2014

EventPlaceGun Time Race #NameDivision Place/GenderPlace/Division Chip Time
10K 1/88 0:50:21 3521 DEWAR, Corinne F1829 1/81 1/9 0:50:20
10K 2/88 0:50:53 3553 MATLOCK, Ron M4049 1/7 1/2 0:50:45
10K 3/88 0:52:03 3560 MORACA, Sanela F1829 2/81 2/9 0:51:57
10K 4/88 0:52:04 3583 THOMAS, Angela F3039 3/81 1/16 0:51:59
10K 5/88 0:53:28 3511 BOWN, Heather F3039 4/81 2/16 0:53:12
10K 6/88 0:53:45 3507 BARRIAGE, Tammie F1829 5/81 3/9 0:53:38
10K 7/88 0:54:00 3506 BARKHOUSE, Jake M-U18 2/7 1/1 0:53:49
10K 8/88 0:54:20 3576 RYAN, Kurt M4049 3/7 2/2 0:54:20
10K 9/88 0:54:43 3542 KANELLAKOS, Barbara F3039 6/81 3/16 0:54:23
10K 10/88 0:54:43 3528 GARNEAU, Jessica F1829 7/81 4/9 0:54:31
10K 11/88 0:54:48 3551 MAHAR, Heather F3039 8/81 4/16 0:54:44
10K 12/88 0:54:58 3562 MUISE, Jacob M1829 4/7 1/2 0:54:46
10K 13/88 0:55:29 3505 BARKHOUSE, Heather F4049 9/81 1/25 0:55:19
10K 14/88 0:55:48 3552 MARTIN, Debbie F3039 10/81 5/16 0:55:41
10K 15/88 0:56:44 3550 MACISAAC, Amy F4049 11/81 2/25 0:56:43
10K 16/88 0:56:44 3530 GILLESPIE DEGOOYER, Margaret F4049 12/81 3/25 0:56:43
10K 17/88 0:58:36 3554 MCCLELLAN, Wanda F5059 13/81 1/24 0:58:26
10K 18/88 0:58:36 3556 MCNUTT, Karen F5059 14/81 2/24 0:58:26
10K 19/88 0:58:46 3513 CARVER, Stephanie F5059 15/81 3/24 0:58:38
10K 20/88 1:00:45 3570 PUBLICOVER, Cathy F4049 16/81 4/25 1:00:41
10K 21/88 1:02:01 3526 EDWARDS, Tonya F4049 17/81 5/25 1:01:53
10K 22/88 1:02:04 3519 CONRAD, Teri F4049 18/81 6/25 1:01:50
10K 23/88 1:02:51 3532 GRAHAM, Cheryl F4049 19/81 7/25 1:02:36
10K 24/88 1:02:51 3588 WILLIAMS, Theresa F5059 20/81 4/24 1:02:48
10K 25/88 1:03:42 3533 GRAHAM, Lesley F4049 21/81 8/25 1:03:28
10K 26/88 1:03:58 3503 ARSENAULT, Lisa F4049 22/81 9/25 1:03:48
10K 27/88 1:04:01 3537 HUPMAN, Roberta F4049 23/81 10/25 1:03:47
10K 28/88 1:04:14 3559 MIRI, Diva F3039 24/81 6/16 1:04:08
10K 29/88 1:04:27 3580 SIMMONS, Lynne F4049 25/81 11/25 1:04:12
10K 30/88 1:04:35 3529 GATES-HAMMOND, Peggy F5059 26/81 5/24 1:04:20
10K 31/88 1:04:55 3325 CHUPICK, Joe M1829 5/7 2/2 1:04:55
10K 32/88 1:05:06 3524 DULONG, Rachelle F4049 27/81 12/25 1:05:05
10K 33/88 1:05:16 3567 PEVERILL, Shawna F4049 28/81 13/25 1:05:03
10K 34/88 1:05:16 3512 CAMPBELL, Angie F4049 29/81 14/25 1:05:04
10K 35/88 1:06:44 3540 JOHNSON, Larry M5059 6/7 1/2 1:06:35
10K 36/88 1:08:21 3569 PROLE, Jyll F60+ 30/81 1/7 1:08:18
10K 37/88 1:08:30 3564 NOBLE, Lisa F3039 31/81 7/16 1:08:24
10K 38/88 1:08:31 3582 TEMPLE, Rhonda F4049 32/81 15/25 1:08:24
10K 39/88 1:09:31 3579 SHEPPARD, Bobbi F4049 33/81 16/25 1:09:25
10K 40/88 1:09:38 3504 BAILEY, Mandy F3039 34/81 8/16 1:09:37
10K 41/88 1:09:40 3557 MILES, Nancy F5059 35/81 6/24 1:09:24
10K 42/88 1:10:14 3573 REZVANI, Nasim F1829 36/81 5/9 1:10:10
10K 43/88 1:10:25 3535 HALPERIN, Beth F60+ 37/81 2/7 1:10:19
10K 44/88 1:10:25 3510 BEVAN, Shelley F4049 38/81 17/25 1:10:22
10K 45/88 1:11:32 3555 MCNEIL, Patti F5059 39/81 7/24 1:11:21
10K 46/88 1:11:35 3563 MUZZERALL, Cindra F5059 40/81 8/24 1:11:16
10K 47/88 1:12:32 3319 NELSON, Joselyn F1829 41/81 6/9 1:12:22
10K 48/88 1:12:41 3509 BEST, Kim F4049 42/81 18/25 1:12:31
10K 49/88 1:13:04 3568 PHUNG, Thanh F1829 43/81 7/9 1:13:00
10K 50/88 1:13:15 3515 CHAFE, Jennifer F4049 44/81 19/25 1:13:11
10K 51/88 1:13:41 3548 MACAULAY, Helen F5059 45/81 9/24 1:13:25
10K 52/88 1:13:45 3578 SCALLION, Mary F5059 46/81 10/24 1:13:31
10K 53/88 1:13:57 3587 WARREN, Lena F60+ 47/81 3/7 1:13:48
10K 54/88 1:14:06 3531 GNIEWEK, Anne F5059 48/81 11/24 1:13:49
10K 55/88 1:14:17 3514 CHAFE, Crystal F3039 49/81 9/16 1:14:12
10K 56/88 1:14:55 3324 NEWMAN, Sara F3039 50/81 10/16 1:14:52
10K 57/88 1:14:58 3584 TRUDEAU, Kaitlyn F1829 51/81 8/9 1:14:48
10K 58/88 1:15:24 3527 ESTEY, Sylvia F5059 52/81 12/24 1:15:19
10K 59/88 1:15:25 3589 WINFIELD, Patty F5059 53/81 13/24 1:15:11
10K 60/88 1:15:25 3566 PENNEY-ZWICKER, Kathy F4049 54/81 20/25 1:15:11
10K 61/88 1:15:31 3571 QUENTIN, Olivia F4049 55/81 21/25 1:15:24
10K 62/88 1:16:30 3536 HAZELWOOD, Mellissa F4049 56/81 22/25 1:16:28
10K 63/88 1:16:50 3546 LEBLANC, Kristal F3039 57/81 11/16 1:16:42
10K 64/88 1:19:18 3518 COMEAU, Tracey F3039 58/81 12/16 1:19:10
10K 65/88 1:19:33 3539 JOHNSON, Cindy F5059 59/81 14/24 1:19:24
10K 66/88 1:20:22 3549 MACINTYRE, Pam F5059 60/81 15/24 1:20:15
10K 67/88 1:21:07 3586 WADE, Terry F5059 61/81 16/24 1:20:54
10K 68/88 1:21:45 3541 JOLDERSMA, Robin F1829 62/81 9/9 1:21:39
10K 69/88 1:22:20 3321 ELLIS, Shelley F5059 63/81 17/24 1:22:08
10K 70/88 1:22:34 3575 ROWE, Lindsey F3039 64/81 13/16 1:22:33
10K 71/88 1:22:34 3534 GRAHAM, Rosalyn F3039 65/81 14/16 1:22:34
10K 72/88 1:22:38 3322 ANDREWS, Cathy F5059 66/81 18/24 1:22:26
10K 73/88 1:22:39 3323 CLAIR, Sharon F5059 67/81 19/24 1:22:26
10K 74/88 1:22:43 3320 COFFIN, Karon F5059 68/81 20/24 1:22:31
10K 75/88 1:22:48 3547 LEWIS, Eileen F60+ 69/81 4/7 1:22:47
10K 76/88 1:25:06 3516 CHAPMAN, Kristina F4049 70/81 23/25 1:25:01
10K 77/88 1:26:27 3501 ABBOTT, Melanie F3039 71/81 15/16 1:26:24
10K 78/88 1:26:27 3523 DOREY, Carmen F3039 72/81 16/16 1:26:25
10K 79/88 1:28:01 3558 MILLIGAN, Carl M5059 7/7 2/2 1:27:42
10K 80/88 1:28:01 3574 ROSS, Kelli F5059 73/81 21/24 1:27:44
10K 81/88 1:28:02 3565 O'NEILL, Jennifer F4049 74/81 24/25 1:27:42
10K 82/88 1:28:03 3543 KEATING, Lorna F60+ 75/81 5/7 1:27:44
10K 83/88 1:29:21 3577 SARGENT, Maureen F5059 76/81 22/24 1:29:02
10K 84/88 1:36:00 3525 DUNFIELD, Debra F60+ 77/81 6/7 1:35:58
10K 85/88 1:36:02 3538 JACKSON, Wanda F4049 78/81 25/25 1:36:00
10K 86/88 1:36:02 3581 SNOWDON, Barbara F5059 79/81 23/24 1:35:55
10K 87/88 1:36:04 3561 MUISE, Dawn F5059 80/81 24/24 1:35:57
10K 88/88 1:43:44 3520 DALZELL, Deborah F60+ 81/81 7/7 1:43:25